G Wood, Mississippi
Current Conditions -  °F | °C
As of 2:53 PM on Monday 24 Nov 2014 (Local Time) from KGWO Reporting Station
Clear Clear  
Wind Chill: 58°   Ceiling: Unl
Heat Index: 58°   Visibility: 10mi
Dew Point: 30°   Wind: 7mph
Humidity: 35%   Direction: NA
Pressure: 29.95"   Gusts: NA
Location:  33.5163°N, 90.1795°W
Report Text: KGWO 242053Z AUTO VRB06KT 10SM CLR 14/M01 A2995 RMK AO2 SLP143 T01441011 53005 TSNO
Loading
Personal Weather Stations






























Interactive Weather Map New forecast layout! Learn more

10-Day Weather Forecast

Advertisements
Track Severe Weather on mobile